createdAt,value
2022-12-03T00:00:12.534Z,85.07
2022-12-03T00:01:06.420Z,85.36
2022-12-03T00:01:39.767Z,85.45
2022-12-03T00:02:13.202Z,85.59
2022-12-03T00:02:46.715Z,85.43
2022-12-03T00:03:20.363Z,85.64
2022-12-03T00:03:54.920Z,85.77
2022-12-03T00:04:28.381Z,85.79
2022-12-03T00:05:01.683Z,86.22
2022-12-03T00:05:35.118Z,86.01
2022-12-03T00:06:09.580Z,86.15
2022-12-03T00:06:42.870Z,85.96
2022-12-03T00:07:16.995Z,85.92
2022-12-03T00:07:50.339Z,85.93
2022-12-03T00:08:23.808Z,86.19
2022-12-03T00:08:59.124Z,86.17
2022-12-03T00:09:34.807Z,85.97
2022-12-03T00:10:09.359Z,85.95
2022-12-03T00:10:48.644Z,85.68
2022-12-03T00:11:21.903Z,85.99
2022-12-03T00:11:57.744Z,85.70
2022-12-03T00:12:31.005Z,85.88
2022-12-03T00:13:04.464Z,85.88
2022-12-03T00:13:37.877Z,86.08
2022-12-03T00:14:11.268Z,85.96
2022-12-03T00:14:45.105Z,85.85
2022-12-03T00:15:18.498Z,85.73
2022-12-03T00:15:51.823Z,85.92
2022-12-03T00:16:26.463Z,85.59
2022-12-03T00:17:00.292Z,85.65
2022-12-03T00:17:34.113Z,85.86
2022-12-03T00:18:07.369Z,85.88
2022-12-03T00:18:42.549Z,85.87
2022-12-03T00:19:15.671Z,85.96
2022-12-03T00:19:48.888Z,86.01
2022-12-03T00:20:26.797Z,86.21
2022-12-03T00:21:00.073Z,86.15
2022-12-03T00:21:34.252Z,86.06
2022-12-03T00:22:07.603Z,85.89
2022-12-03T00:22:40.986Z,85.93
2022-12-03T00:23:14.213Z,86.17
2022-12-03T00:23:47.371Z,85.97
2022-12-03T00:24:20.670Z,85.74
2022-12-03T00:24:54.094Z,85.99
2022-12-03T00:25:28.863Z,85.81
2022-12-03T00:26:04.648Z,85.67
2022-12-03T00:26:37.952Z,86.01
2022-12-03T00:27:11.334Z,86.19
2022-12-03T00:27:45.154Z,86.03
2022-12-03T00:28:19.325Z,85.99
2022-12-03T00:28:54.924Z,86.13
2022-12-03T00:29:33.043Z,86.28
2022-12-03T00:30:07.343Z,86.31
2022-12-03T00:30:40.734Z,86.27
2022-12-03T00:31:14.163Z,86.47
2022-12-03T00:31:47.550Z,86.62
2022-12-03T00:32:20.740Z,86.53
2022-12-03T00:32:54.202Z,86.51
2022-12-03T00:33:27.488Z,86.35
2022-12-03T00:34:00.690Z,86.40
2022-12-03T00:34:38.668Z,86.15
2022-12-03T00:35:12.238Z,86.13
2022-12-03T00:35:45.500Z,86.34
2022-12-03T00:36:19.670Z,86.35
2022-12-03T00:36:56.598Z,85.94
2022-12-03T00:37:29.950Z,86.32
2022-12-03T00:38:03.466Z,85.77
2022-12-03T00:38:36.708Z,85.61
2022-12-03T00:39:10.039Z,85.43
2022-12-03T00:39:43.338Z,85.45
2022-12-03T00:40:16.632Z,85.33
2022-12-03T00:40:51.299Z,85.65
2022-12-03T00:41:24.794Z,85.38
2022-12-03T00:41:58.298Z,85.68
2022-12-03T00:42:31.643Z,85.65
2022-12-03T00:43:05.340Z,85.57
2022-12-03T00:43:41.134Z,85.88
2022-12-03T00:44:14.598Z,85.98
2022-12-03T00:44:47.754Z,86.38
2022-12-03T00:45:20.900Z,85.94
2022-12-03T00:45:58.052Z,86.09
2022-12-03T00:46:31.536Z,86.17
2022-12-03T00:47:05.175Z,86.08
2022-12-03T00:47:40.295Z,86.19
2022-12-03T00:48:15.613Z,86.02
2022-12-03T00:48:48.898Z,86.06
2022-12-03T00:49:22.304Z,86.13
2022-12-03T00:49:59.572Z,86.15
2022-12-03T00:50:32.821Z,86.18
2022-12-03T00:51:06.251Z,86.27
2022-12-03T00:51:39.520Z,86.14
2022-12-03T00:52:12.701Z,86.02
2022-12-03T00:52:46.040Z,86.14
2022-12-03T00:53:19.288Z,86.05
2022-12-03T00:53:52.470Z,85.96
2022-12-03T00:54:31.898Z,85.94
2022-12-03T00:55:09.370Z,86.36
2022-12-03T00:55:45.721Z,86.29
2022-12-03T00:56:18.922Z,86.48
2022-12-03T00:56:52.285Z,86.03
2022-12-03T00:57:25.488Z,86.35
2022-12-03T00:57:58.727Z,86.33
2022-12-03T00:58:34.464Z,86.28
2022-12-03T00:59:09.385Z,86.35
2022-12-03T00:59:42.705Z,86.51
2022-12-03T01:00:17.961Z,86.35
2022-12-03T01:00:52.289Z,86.31
2022-12-03T01:01:25.846Z,86.27
2022-12-03T01:02:01.695Z,86.08
2022-12-03T01:02:35.204Z,86.24
2022-12-03T01:03:13.901Z,86.08
2022-12-03T01:03:47.117Z,86.26
2022-12-03T01:04:20.500Z,86.31
2022-12-03T01:04:56.705Z,86.29
2022-12-03T01:05:32.229Z,86.42
2022-12-03T01:06:07.399Z,86.10
2022-12-03T01:06:40.694Z,86.16
2022-12-03T01:07:14.616Z,86.36
2022-12-03T01:07:47.953Z,86.31
2022-12-03T01:08:24.038Z,86.44
2022-12-03T01:08:57.542Z,86.22
2022-12-03T01:09:32.413Z,86.32
2022-12-03T01:10:07.429Z,86.32
2022-12-03T01:10:40.956Z,86.24
2022-12-03T01:11:32.951Z,86.31
2022-12-03T01:12:08.464Z,86.10
2022-12-03T01:12:41.603Z,86.25
2022-12-03T01:13:18.763Z,86.21
2022-12-03T01:13:51.977Z,86.47
2022-12-03T01:14:27.712Z,86.20
2022-12-03T01:15:05.299Z,86.44
2022-12-03T01:15:38.503Z,86.64
2022-12-03T01:16:11.767Z,86.27
2022-12-03T01:16:46.252Z,86.39
2022-12-03T01:17:19.512Z,86.61
2022-12-03T01:17:54.478Z,86.52
2022-12-03T01:18:27.773Z,86.78
2022-12-03T01:19:01.077Z,86.41
2022-12-03T01:19:35.507Z,86.44
2022-12-03T01:20:10.145Z,86.56
2022-12-03T01:20:43.562Z,86.72
2022-12-03T01:21:19.857Z,86.37
2022-12-03T01:21:53.050Z,86.54
2022-12-03T01:22:26.618Z,86.48
2022-12-03T01:22:59.815Z,86.27
2022-12-03T01:23:33.028Z,86.22
2022-12-03T01:24:06.601Z,86.20
2022-12-03T01:24:39.776Z,86.11
2022-12-03T01:25:13.028Z,85.83
2022-12-03T01:25:46.412Z,86.22
2022-12-03T01:26:19.624Z,85.89
2022-12-03T01:26:52.953Z,86.18
2022-12-03T01:27:26.325Z,86.06
2022-12-03T01:28:00.615Z,86.01
2022-12-03T01:28:33.964Z,86.00
2022-12-03T01:29:07.629Z,85.93
2022-12-03T01:29:41.065Z,85.92
2022-12-03T01:30:16.112Z,86.06
2022-12-03T01:31:09.391Z,86.09
2022-12-03T01:32:01.087Z,85.84
2022-12-03T01:32:34.386Z,85.96
2022-12-03T01:33:10.612Z,86.04
2022-12-03T01:33:43.892Z,85.86
2022-12-03T01:34:17.413Z,85.99
2022-12-03T01:34:53.365Z,85.97
2022-12-03T01:35:26.813Z,85.72
2022-12-03T01:35:59.981Z,86.11
2022-12-03T01:36:34.525Z,85.95
2022-12-03T01:37:07.818Z,85.59
2022-12-03T01:37:41.193Z,85.55
2022-12-03T01:38:14.433Z,85.33
2022-12-03T01:38:48.918Z,85.64
2022-12-03T01:39:22.173Z,85.50
2022-12-03T01:39:57.639Z,85.63
2022-12-03T01:40:31.883Z,85.83
2022-12-03T01:41:10.097Z,85.74
2022-12-03T01:41:49.234Z,85.82
2022-12-03T01:42:29.119Z,85.95
2022-12-03T01:43:02.363Z,86.16
2022-12-03T01:43:36.799Z,86.01
2022-12-03T01:44:32.465Z,86.08
2022-12-03T01:45:07.306Z,86.00
2022-12-03T01:45:40.451Z,86.07
2022-12-03T01:46:27.052Z,86.03
2022-12-03T01:47:04.416Z,85.93
2022-12-03T01:47:38.511Z,85.91
2022-12-03T01:48:16.878Z,85.96
2022-12-03T01:48:52.908Z,86.00
2022-12-03T01:49:42.544Z,86.26
2022-12-03T01:50:26.313Z,85.99
2022-12-03T01:50:59.553Z,86.27
2022-12-03T01:51:32.946Z,86.12
2022-12-03T01:52:06.670Z,85.80
2022-12-03T01:52:41.048Z,86.16
2022-12-03T01:53:16.223Z,86.01
2022-12-03T01:53:49.845Z,86.20
2022-12-03T01:54:31.281Z,85.99
2022-12-03T01:55:06.630Z,86.28
2022-12-03T01:55:40.739Z,86.36
2022-12-03T01:56:18.613Z,86.31
2022-12-03T01:56:55.792Z,86.20
2022-12-03T01:57:40.143Z,86.27
2022-12-03T01:58:15.022Z,86.30
2022-12-03T01:58:48.782Z,86.24
2022-12-03T01:59:28.326Z,85.92
2022-12-03T02:00:02.057Z,86.20
2022-12-03T02:00:41.260Z,86.27
2022-12-03T02:01:17.871Z,86.31
2022-12-03T02:01:51.208Z,86.12
2022-12-03T02:02:32.393Z,86.34
2022-12-03T02:03:11.724Z,86.19
2022-12-03T02:03:46.369Z,86.34
2022-12-03T02:04:25.439Z,86.38
2022-12-03T02:05:00.322Z,86.44
2022-12-03T02:05:34.122Z,86.21
2022-12-03T02:06:18.306Z,86.10
2022-12-03T02:06:51.741Z,86.21
2022-12-03T02:07:33.575Z,86.14
2022-12-03T02:08:37.492Z,85.68
2022-12-03T02:09:13.179Z,85.80
2022-12-03T02:09:46.573Z,86.16
2022-12-03T02:10:28.448Z,85.93
2022-12-03T02:11:05.938Z,86.25
2022-12-03T02:11:44.783Z,85.89
2022-12-03T02:12:25.189Z,85.95
2022-12-03T02:13:01.428Z,85.82
2022-12-03T02:13:37.603Z,86.10
2022-12-03T02:14:15.527Z,86.06
2022-12-03T02:14:49.293Z,85.79
2022-12-03T02:15:26.941Z,85.87
2022-12-03T02:16:00.204Z,85.86
2022-12-03T02:16:36.021Z,86.03
2022-12-03T02:17:13.212Z,86.01
2022-12-03T02:17:46.564Z,86.14
2022-12-03T02:18:20.764Z,86.04
2022-12-03T02:18:54.012Z,86.09
2022-12-03T02:19:30.138Z,86.33
2022-12-03T02:20:07.545Z,86.16
2022-12-03T02:21:11.300Z,86.01
2022-12-03T02:22:02.483Z,86.24
2022-12-03T02:23:10.091Z,86.02
2022-12-03T02:24:05.615Z,86.52
2022-12-03T02:24:55.935Z,86.64
2022-12-03T02:25:32.439Z,86.62
2022-12-03T02:26:08.640Z,86.58
2022-12-03T02:26:42.055Z,86.65
2022-12-03T02:27:15.391Z,86.30
2022-12-03T02:27:49.312Z,86.54
2022-12-03T02:28:25.346Z,86.38
2022-12-03T02:28:58.805Z,86.20
2022-12-03T02:29:33.098Z,86.24
2022-12-03T02:30:08.033Z,86.32
2022-12-03T02:30:41.384Z,86.12
2022-12-03T02:31:14.789Z,86.29
2022-12-03T02:31:48.170Z,86.20
2022-12-03T02:32:23.651Z,86.21
2022-12-03T02:33:00.563Z,86.29
2022-12-03T02:33:33.996Z,85.96
2022-12-03T02:34:07.750Z,86.10
2022-12-03T02:34:42.663Z,86.18
2022-12-03T02:35:27.430Z,86.35
2022-12-03T02:36:04.016Z,86.12
2022-12-03T02:36:40.372Z,86.02
2022-12-03T02:37:27.251Z,86.06
2022-12-03T02:38:08.579Z,85.91
2022-12-03T02:38:43.941Z,86.00
2022-12-03T02:39:19.208Z,86.03
2022-12-03T02:39:58.720Z,85.79
2022-12-03T02:40:34.117Z,85.85
2022-12-03T02:41:32.343Z,85.78
2022-12-03T02:42:27.182Z,86.14
2022-12-03T02:43:03.226Z,85.76
2022-12-03T02:43:37.534Z,85.56
2022-12-03T02:44:11.621Z,85.50
2022-12-03T02:44:45.029Z,85.46
2022-12-03T02:45:22.491Z,85.55
2022-12-03T02:45:58.623Z,85.70
2022-12-03T02:46:32.912Z,85.30
2022-12-03T02:47:06.420Z,85.51
2022-12-03T02:47:44.583Z,85.61
2022-12-03T02:48:25.765Z,85.36
2022-12-03T02:50:48.822Z,85.23
2022-12-03T02:51:22.047Z,84.89
2022-12-03T02:51:58.775Z,85.23
2022-12-03T02:52:34.506Z,85.30
2022-12-03T02:53:12.813Z,85.11
2022-12-03T02:53:48.492Z,85.20
2022-12-03T02:54:22.942Z,85.15
2022-12-03T02:54:56.459Z,85.10
2022-12-03T02:55:36.532Z,85.21
2022-12-03T02:56:25.465Z,85.07
2022-12-03T02:56:59.940Z,85.25
2022-12-03T02:57:35.204Z,85.30
2022-12-03T02:58:11.259Z,85.36
2022-12-03T02:58:55.464Z,85.16
2022-12-03T02:59:29.018Z,85.12
2022-12-03T03:00:06.180Z,85.08
2022-12-03T03:00:40.200Z,85.24
2022-12-03T03:01:15.624Z,85.29
2022-12-03T03:01:49.922Z,84.96
2022-12-03T03:02:23.424Z,85.23
2022-12-03T03:02:57.378Z,85.29
2022-12-03T03:03:33.103Z,85.16
2022-12-03T03:04:07.020Z,85.48
2022-12-03T03:04:41.470Z,85.21
2022-12-03T03:05:18.094Z,85.32
2022-12-03T03:05:51.902Z,85.44
2022-12-03T03:06:33.220Z,85.40
2022-12-03T03:07:06.577Z,85.32
2022-12-03T03:07:40.881Z,85.23
2022-12-03T03:08:14.978Z,85.39
2022-12-03T03:08:49.466Z,85.26
2022-12-03T03:09:23.023Z,85.29
2022-12-03T03:09:56.541Z,85.23
2022-12-03T03:10:30.975Z,85.35
2022-12-03T03:11:04.397Z,85.00
2022-12-03T03:11:37.998Z,85.05
2022-12-03T03:12:11.797Z,84.86
2022-12-03T03:12:45.083Z,85.06
2022-12-03T03:13:19.918Z,85.03
2022-12-03T03:13:53.353Z,85.04
2022-12-03T03:14:26.654Z,85.01
2022-12-03T03:15:03.188Z,84.95
2022-12-03T03:15:38.284Z,85.19
2022-12-03T03:16:11.617Z,85.13
2022-12-03T03:16:45.042Z,84.87
2022-12-03T03:17:18.499Z,85.00
2022-12-03T03:17:52.359Z,84.84
2022-12-03T03:18:25.707Z,84.57
2022-12-03T03:18:59.028Z,84.54
2022-12-03T03:19:33.148Z,84.30
2022-12-03T03:20:08.838Z,84.56
2022-12-03T03:20:42.838Z,84.53
2022-12-03T03:21:16.098Z,84.59
2022-12-03T03:21:49.280Z,84.57
2022-12-03T03:22:22.555Z,84.84
2022-12-03T03:23:05.978Z,84.55
2022-12-03T03:23:41.653Z,84.69
2022-12-03T03:24:14.905Z,84.70
2022-12-03T03:24:48.103Z,84.79
2022-12-03T03:25:22.551Z,84.71
2022-12-03T03:26:14.089Z,84.77
2022-12-03T03:26:47.897Z,84.54
2022-12-03T03:27:21.168Z,84.40
2022-12-03T03:27:56.927Z,84.50
2022-12-03T03:28:31.524Z,84.59
2022-12-03T03:29:05.235Z,84.61
2022-12-03T03:29:40.639Z,84.24
2022-12-03T03:30:17.333Z,84.59
2022-12-03T03:30:55.992Z,84.44
2022-12-03T03:31:29.389Z,84.57
2022-12-03T03:32:03.705Z,84.56
2022-12-03T03:32:38.598Z,84.64
2022-12-03T03:33:13.722Z,84.52
2022-12-03T03:33:49.863Z,84.65
2022-12-03T03:34:23.128Z,84.47
2022-12-03T03:35:02.562Z,84.83
2022-12-03T03:35:37.343Z,84.67
2022-12-03T03:36:13.061Z,84.62
2022-12-03T03:36:47.147Z,84.64
2022-12-03T03:37:24.932Z,84.65
2022-12-03T03:38:02.893Z,84.59
2022-12-03T03:38:37.245Z,84.69
2022-12-03T03:39:16.118Z,84.55
2022-12-03T03:39:49.595Z,84.49
2022-12-03T03:40:22.854Z,84.47
2022-12-03T03:40:58.272Z,84.37
2022-12-03T03:41:36.829Z,83.80
2022-12-03T03:42:10.198Z,83.71
2022-12-03T03:42:43.518Z,83.75
2022-12-03T03:43:17.913Z,83.51
2022-12-03T03:43:51.227Z,83.58
2022-12-03T03:44:26.748Z,83.45
2022-12-03T03:45:00.181Z,83.47
2022-12-03T03:45:33.800Z,83.33
2022-12-03T03:46:07.851Z,83.50
2022-12-03T03:46:41.507Z,83.57
2022-12-03T03:47:16.180Z,83.19
2022-12-03T03:47:53.047Z,82.99
2022-12-03T03:48:26.611Z,82.89
2022-12-03T03:49:03.803Z,82.83
2022-12-03T03:49:37.303Z,83.15
2022-12-03T03:50:12.413Z,82.99
2022-12-03T03:50:46.470Z,83.13
2022-12-03T03:51:20.348Z,83.29
2022-12-03T03:51:55.103Z,83.02
2022-12-03T03:52:28.694Z,83.33
2022-12-03T03:53:06.313Z,83.05
2022-12-03T03:53:49.790Z,83.01
2022-12-03T03:54:23.889Z,83.07
2022-12-03T03:55:00.275Z,82.97
2022-12-03T03:55:35.890Z,82.59
2022-12-03T03:56:09.849Z,82.72
2022-12-03T03:56:43.357Z,82.60
2022-12-03T03:57:16.847Z,82.83
2022-12-03T03:57:50.628Z,82.84
2022-12-03T03:58:26.433Z,82.80
2022-12-03T03:59:00.085Z,82.67
2022-12-03T03:59:35.529Z,82.89
2022-12-03T04:00:09.561Z,82.80
2022-12-03T04:00:46.869Z,82.91
2022-12-03T04:01:20.283Z,82.95
2022-12-03T04:01:53.653Z,82.98
2022-12-03T04:02:28.799Z,82.87
2022-12-03T04:03:03.968Z,83.11
2022-12-03T04:03:37.562Z,83.11
2022-12-03T04:04:26.788Z,82.91
2022-12-03T04:05:00.442Z,82.93
2022-12-03T04:05:33.868Z,82.93
2022-12-03T04:06:07.407Z,82.99
2022-12-03T04:06:40.710Z,82.95
2022-12-03T04:07:14.984Z,83.05
2022-12-03T04:07:53.337Z,83.17
2022-12-03T04:08:26.626Z,83.12
2022-12-03T04:09:07.147Z,83.12
2022-12-03T04:09:40.264Z,83.06
2022-12-03T04:10:33.114Z,83.14
2022-12-03T04:11:25.263Z,83.11
2022-12-03T04:12:23.475Z,82.93
2022-12-03T04:12:56.828Z,82.82
2022-12-03T04:13:30.048Z,83.08
2022-12-03T04:14:03.477Z,82.91
2022-12-03T04:14:36.699Z,82.92
2022-12-03T04:15:14.367Z,82.88
2022-12-03T04:15:48.060Z,82.84
2022-12-03T04:16:22.202Z,82.52
2022-12-03T04:16:55.548Z,82.59
2022-12-03T04:17:28.853Z,82.49
2022-12-03T04:18:20.701Z,82.66
2022-12-03T04:18:54.008Z,82.46
2022-12-03T04:19:27.272Z,82.45
2022-12-03T04:20:00.552Z,82.58
2022-12-03T04:20:33.829Z,82.66
2022-12-03T04:21:26.285Z,82.35
2022-12-03T04:22:19.244Z,82.64
2022-12-03T04:22:52.428Z,82.46
2022-12-03T04:23:30.733Z,82.55
2022-12-03T04:24:05.813Z,82.36
2022-12-03T04:24:38.981Z,82.68
2022-12-03T04:25:31.004Z,82.43
2022-12-03T04:26:22.976Z,82.28
2022-12-03T04:27:17.493Z,82.18
2022-12-03T04:28:10.397Z,82.50
2022-12-03T04:28:49.547Z,82.46
2022-12-03T04:29:23.516Z,82.43
2022-12-03T04:29:56.668Z,82.54
2022-12-03T04:30:30.021Z,82.59
2022-12-03T04:31:26.040Z,82.56
2022-12-03T04:32:18.039Z,82.67
2022-12-03T04:33:10.069Z,82.55
2022-12-03T04:34:02.056Z,82.58
2022-12-03T04:34:54.528Z,82.55
2022-12-03T04:35:43.183Z,82.57
2022-12-03T04:36:20.388Z,82.69
2022-12-03T04:36:54.776Z,82.58
2022-12-03T04:37:28.253Z,82.62
2022-12-03T04:38:02.663Z,82.68
2022-12-03T04:38:35.912Z,82.90
2022-12-03T04:39:09.107Z,82.87
2022-12-03T04:39:42.323Z,82.71
2022-12-03T04:40:34.084Z,82.74
2022-12-03T04:41:07.299Z,82.79
2022-12-03T04:41:40.722Z,82.77
2022-12-03T04:42:14.244Z,82.45
2022-12-03T04:42:48.685Z,82.46
2022-12-03T04:43:22.093Z,82.38
2022-12-03T04:44:13.971Z,82.44
2022-12-03T04:44:47.342Z,82.40
2022-12-03T04:45:20.603Z,82.35
2022-12-03T04:45:53.898Z,82.20
2022-12-03T04:46:31.901Z,82.15
2022-12-03T04:47:16.646Z,82.06
2022-12-03T04:47:52.854Z,82.34
2022-12-03T04:48:26.571Z,82.12
2022-12-03T04:49:01.962Z,82.38
2022-12-03T04:49:37.178Z,82.31
2022-12-03T04:50:11.323Z,82.23
2022-12-03T04:50:44.615Z,82.11
2022-12-03T04:51:17.795Z,81.96
2022-12-03T04:51:51.063Z,82.26
2022-12-03T04:52:24.308Z,82.22
2022-12-03T04:52:58.263Z,82.11
2022-12-03T04:53:36.219Z,82.21
2022-12-03T04:54:12.302Z,82.25
2022-12-03T04:54:45.663Z,82.21
2022-12-03T04:55:18.850Z,82.34
2022-12-03T04:55:54.626Z,82.21
2022-12-03T04:56:27.991Z,81.98
2022-12-03T04:57:01.628Z,82.17
2022-12-03T04:57:34.825Z,82.18
2022-12-03T04:58:08.069Z,82.37
2022-12-03T04:58:41.288Z,82.37
2022-12-03T04:59:16.527Z,82.31
2022-12-03T04:59:50.025Z,82.35
2022-12-03T05:00:23.465Z,82.34
2022-12-03T05:00:56.831Z,82.15
2022-12-03T05:01:31.353Z,82.12
2022-12-03T05:02:06.352Z,82.20
2022-12-03T05:02:41.606Z,82.21
2022-12-03T05:03:14.976Z,82.34
2022-12-03T05:03:48.245Z,82.33
2022-12-03T05:04:21.545Z,82.20
2022-12-03T05:04:56.830Z,82.33
2022-12-03T05:05:32.595Z,82.17
2022-12-03T05:06:05.913Z,82.33
2022-12-03T05:06:40.323Z,82.51
2022-12-03T05:07:13.602Z,82.43
2022-12-03T05:07:48.673Z,82.43
2022-12-03T05:08:21.942Z,82.40
2022-12-03T05:08:55.141Z,82.42
2022-12-03T05:09:29.393Z,82.51
2022-12-03T05:10:02.535Z,82.62
2022-12-03T05:10:35.729Z,82.58
2022-12-03T05:11:09.076Z,82.41
2022-12-03T05:11:44.084Z,82.37
2022-12-03T05:12:17.374Z,82.46
2022-12-03T05:12:51.890Z,82.40
2022-12-03T05:13:25.285Z,82.45
2022-12-03T05:13:58.493Z,82.57
2022-12-03T05:14:33.588Z,82.68
2022-12-03T05:15:07.651Z,82.87
2022-12-03T05:15:40.914Z,82.56
2022-12-03T05:16:14.235Z,82.47
2022-12-03T05:16:47.659Z,82.41
2022-12-03T05:17:24.006Z,82.60
2022-12-03T05:17:57.236Z,82.52
2022-12-03T05:18:30.451Z,82.67
2022-12-03T05:19:04.923Z,82.27
2022-12-03T05:19:57.021Z,82.36
2022-12-03T05:20:43.841Z,82.41
2022-12-03T05:21:19.093Z,82.56
2022-12-03T05:21:52.338Z,82.65
2022-12-03T05:22:25.849Z,82.97
2022-12-03T05:22:59.037Z,82.80
2022-12-03T05:23:32.337Z,82.75
2022-12-03T05:24:06.032Z,82.62
2022-12-03T05:24:39.308Z,82.73
2022-12-03T05:25:14.841Z,82.79
2022-12-03T05:25:48.157Z,82.25
2022-12-03T05:26:22.927Z,82.31
2022-12-03T05:26:56.172Z,82.35
2022-12-03T05:27:29.418Z,82.44
2022-12-03T05:28:06.792Z,82.27
2022-12-03T05:28:40.178Z,82.17
2022-12-03T05:29:13.376Z,82.25
2022-12-03T05:29:46.705Z,81.87
2022-12-03T05:30:19.944Z,81.88
2022-12-03T05:30:53.295Z,82.02
2022-12-03T05:31:26.846Z,82.01
2022-12-03T05:32:00.083Z,81.55
2022-12-03T05:32:33.313Z,81.70
2022-12-03T05:33:07.763Z,81.71
2022-12-03T05:33:44.223Z,81.85
2022-12-03T05:34:17.928Z,82.01
2022-12-03T05:34:51.338Z,81.86
2022-12-03T05:35:24.903Z,81.63
2022-12-03T05:35:58.507Z,81.34
2022-12-03T05:36:31.984Z,81.49
2022-12-03T05:37:05.250Z,81.82
2022-12-03T05:37:38.629Z,81.71
2022-12-03T05:38:11.838Z,81.56
2022-12-03T05:38:45.043Z,81.62
2022-12-03T05:39:18.246Z,81.91
2022-12-03T05:39:53.983Z,82.09
2022-12-03T05:40:27.183Z,81.93
2022-12-03T05:41:00.737Z,81.91
2022-12-03T05:41:52.580Z,81.87
2022-12-03T05:42:44.796Z,82.04
2022-12-03T05:43:18.224Z,82.12
2022-12-03T05:43:51.443Z,82.06
2022-12-03T05:44:26.847Z,81.95
2022-12-03T05:45:02.492Z,81.96
2022-12-03T05:45:38.597Z,81.84
2022-12-03T05:46:11.889Z,82.09
2022-12-03T05:46:45.121Z,81.78
2022-12-03T05:47:18.343Z,81.91
2022-12-03T05:47:53.417Z,81.86
2022-12-03T05:48:28.104Z,81.62
2022-12-03T05:49:01.348Z,81.61
2022-12-03T05:49:34.748Z,81.80
2022-12-03T05:50:08.367Z,81.95
2022-12-03T05:50:45.962Z,82.00
2022-12-03T05:51:25.091Z,81.79
2022-12-03T05:52:00.753Z,82.08
2022-12-03T05:52:34.988Z,82.08
2022-12-03T05:53:08.182Z,82.01
2022-12-03T05:53:41.382Z,81.83
2022-12-03T05:54:14.655Z,81.93
2022-12-03T05:54:50.038Z,82.02
2022-12-03T05:55:25.425Z,81.97
2022-12-03T05:55:58.858Z,81.81
2022-12-03T05:56:33.985Z,81.97
2022-12-03T05:57:07.232Z,82.16
2022-12-03T05:57:41.911Z,81.86
2022-12-03T05:58:15.178Z,81.80
2022-12-03T05:58:48.410Z,82.12
2022-12-03T05:59:21.756Z,81.91
2022-12-03T05:59:55.007Z,82.05
2022-12-03T06:00:31.262Z,81.55
2022-12-03T06:01:04.420Z,81.79
2022-12-03T06:01:38.867Z,81.60
2022-12-03T06:02:12.289Z,81.57
2022-12-03T06:02:45.836Z,81.36
2022-12-03T06:03:19.591Z,81.54
2022-12-03T06:03:53.160Z,81.68
2022-12-03T06:04:26.475Z,81.63
2022-12-03T06:04:59.895Z,81.58
2022-12-03T06:05:35.052Z,81.75
2022-12-03T06:06:08.487Z,81.42
2022-12-03T06:06:41.728Z,81.92
2022-12-03T06:07:15.010Z,81.74
2022-12-03T06:07:52.546Z,81.71
2022-12-03T06:08:25.798Z,81.91
2022-12-03T06:08:59.332Z,81.58
2022-12-03T06:09:33.760Z,81.17
2022-12-03T06:10:12.948Z,81.39
2022-12-03T06:10:46.199Z,81.39
2022-12-03T06:11:19.451Z,81.20
2022-12-03T06:11:54.319Z,81.24
2022-12-03T06:12:27.767Z,81.25
2022-12-03T06:13:01.154Z,81.24
2022-12-03T06:13:34.574Z,80.94
2022-12-03T06:14:08.034Z,81.28
2022-12-03T06:14:41.201Z,81.31
2022-12-03T06:15:16.777Z,81.21
2022-12-03T06:15:50.137Z,81.42
2022-12-03T06:16:23.352Z,81.25
2022-12-03T06:16:56.663Z,81.43
2022-12-03T06:17:29.917Z,81.36
2022-12-03T06:18:03.232Z,81.47
2022-12-03T06:18:38.997Z,81.45
2022-12-03T06:19:12.156Z,81.29
2022-12-03T06:19:45.380Z,81.46
2022-12-03T06:20:20.450Z,81.42
2022-12-03T06:20:53.808Z,81.51
2022-12-03T06:21:27.007Z,81.55
2022-12-03T06:22:00.367Z,81.36
2022-12-03T06:22:33.677Z,81.25
2022-12-03T06:23:06.952Z,81.26
2022-12-03T06:23:44.886Z,81.30
2022-12-03T06:24:18.333Z,81.53
2022-12-03T06:24:51.881Z,81.40
2022-12-03T06:25:25.342Z,81.42
2022-12-03T06:25:58.589Z,81.18
2022-12-03T06:26:31.804Z,81.09
2022-12-03T06:27:05.500Z,81.22
2022-12-03T06:27:38.747Z,81.30
2022-12-03T06:28:11.932Z,81.02
2022-12-03T06:28:47.753Z,81.14
2022-12-03T06:29:22.313Z,81.16
2022-12-03T06:29:55.504Z,81.20
2022-12-03T06:30:28.710Z,81.03
2022-12-03T06:31:06.340Z,81.32
2022-12-03T06:31:39.681Z,80.98
2022-12-03T06:32:13.176Z,81.18
2022-12-03T06:32:46.412Z,81.11
2022-12-03T06:33:19.606Z,81.04
2022-12-03T06:33:55.738Z,80.86
2022-12-03T06:34:28.979Z,80.84
2022-12-03T06:35:02.509Z,81.08
2022-12-03T06:35:35.971Z,81.21
2022-12-03T06:36:09.389Z,81.18
2022-12-03T06:36:42.803Z,81.06
2022-12-03T06:37:16.170Z,81.07
2022-12-03T06:37:49.876Z,81.49
2022-12-03T06:38:23.316Z,81.22
2022-12-03T06:38:56.545Z,81.22
2022-12-03T06:39:29.903Z,81.27
2022-12-03T06:40:03.271Z,81.20
2022-12-03T06:40:38.460Z,81.21
2022-12-03T06:41:11.804Z,81.28
2022-12-03T06:41:45.363Z,81.28
2022-12-03T06:42:19.372Z,81.06
2022-12-03T06:42:53.740Z,81.10
2022-12-03T06:43:31.142Z,81.09
2022-12-03T06:44:04.784Z,81.06
2022-12-03T06:44:38.048Z,81.32
2022-12-03T06:45:14.359Z,81.30
2022-12-03T06:45:48.002Z,81.24
2022-12-03T06:46:23.665Z,81.39
2022-12-03T06:46:56.913Z,81.33
2022-12-03T06:47:30.246Z,81.51
2022-12-03T06:48:03.519Z,81.40
2022-12-03T06:48:36.739Z,81.30
2022-12-03T06:49:10.078Z,81.46
2022-12-03T06:49:44.255Z,81.39
2022-12-03T06:50:20.566Z,81.46
2022-12-03T06:50:56.797Z,81.42
2022-12-03T06:51:31.660Z,81.40
2022-12-03T06:52:05.105Z,81.21
2022-12-03T06:52:38.496Z,81.36
2022-12-03T06:53:19.040Z,81.17
2022-12-03T06:53:52.253Z,81.04
2022-12-03T06:54:25.454Z,80.78
2022-12-03T06:54:58.643Z,80.91
2022-12-03T06:55:31.921Z,81.25
2022-12-03T06:56:05.645Z,81.18
2022-12-03T06:56:44.883Z,81.40
2022-12-03T06:57:18.807Z,81.43
2022-12-03T06:57:51.937Z,81.29
2022-12-03T06:58:25.357Z,81.49
2022-12-03T06:59:00.997Z,81.46
2022-12-03T06:59:35.940Z,81.52
2022-12-03T07:00:11.510Z,81.64
2022-12-03T07:00:44.761Z,81.60
2022-12-03T07:01:19.752Z,81.68
2022-12-03T07:01:53.182Z,81.76
2022-12-03T07:02:26.559Z,81.61
2022-12-03T07:02:59.876Z,81.68
2022-12-03T07:03:33.578Z,81.57
2022-12-03T07:04:06.862Z,81.71
2022-12-03T07:04:44.791Z,81.51
2022-12-03T07:05:20.144Z,81.59
2022-12-03T07:05:53.487Z,81.87
2022-12-03T07:06:27.542Z,81.52
2022-12-03T07:07:00.890Z,81.39
2022-12-03T07:07:34.159Z,81.59
2022-12-03T07:08:07.498Z,81.74
2022-12-03T07:08:40.948Z,81.59
2022-12-03T07:09:17.111Z,81.64
2022-12-03T07:09:53.569Z,81.53
2022-12-03T07:10:26.906Z,81.28
2022-12-03T07:11:00.244Z,81.66
2022-12-03T07:11:33.511Z,81.63
2022-12-03T07:12:06.939Z,81.80
2022-12-03T07:12:40.147Z,81.65
2022-12-03T07:13:15.581Z,81.81
2022-12-03T07:13:48.750Z,81.68
2022-12-03T07:14:21.946Z,81.55
2022-12-03T07:14:55.436Z,81.63
2022-12-03T07:15:29.033Z,81.73
2022-12-03T07:16:02.281Z,81.71
2022-12-03T07:16:39.055Z,81.70
2022-12-03T07:17:12.494Z,81.80
2022-12-03T07:17:45.858Z,81.57
2022-12-03T07:18:19.251Z,81.83
2022-12-03T07:18:52.501Z,81.78
2022-12-03T07:19:32.104Z,82.10
2022-12-03T07:20:08.852Z,81.73
2022-12-03T07:20:42.779Z,81.74
2022-12-03T07:21:16.184Z,81.81
2022-12-03T07:21:49.514Z,81.88
2022-12-03T07:22:22.852Z,81.86
2022-12-03T07:22:56.543Z,81.69
2022-12-03T07:23:29.745Z,81.77
2022-12-03T07:24:03.189Z,81.71
2022-12-03T07:24:36.915Z,81.60
2022-12-03T07:25:14.145Z,81.88
2022-12-03T07:25:52.082Z,81.72
2022-12-03T07:26:26.354Z,81.65
2022-12-03T07:27:01.061Z,81.67
2022-12-03T07:27:34.529Z,81.80
2022-12-03T07:28:08.105Z,81.72
2022-12-03T07:28:41.773Z,81.85
2022-12-03T07:29:15.431Z,81.58
2022-12-03T07:29:51.741Z,81.78
2022-12-03T07:30:25.809Z,81.39
2022-12-03T07:30:59.163Z,81.42
2022-12-03T07:31:32.971Z,81.43
2022-12-03T07:32:07.228Z,81.67
2022-12-03T07:32:40.699Z,81.42
2022-12-03T07:33:13.919Z,81.52
2022-12-03T07:33:47.468Z,81.65
2022-12-03T07:34:20.733Z,81.35
2022-12-03T07:34:56.598Z,81.39
2022-12-03T07:35:32.167Z,81.23
2022-12-03T07:36:05.596Z,81.45
2022-12-03T07:36:43.482Z,81.50
2022-12-03T07:37:21.428Z,81.49
2022-12-03T07:37:56.367Z,81.37
2022-12-03T07:38:29.619Z,81.54
2022-12-03T07:39:02.912Z,81.82
2022-12-03T07:39:37.343Z,81.64